Time;durP1;ratioP1;P1;durP2;ratioP2;P2;SDS_P1;SDS_P2;PMS_P1;PMS_P2;Temp;Humidity;BMP_temperature;BMP_pressure;BME280_temperature;BME280_humidity;BME280_pressure;Samples;Min_cycle;Max_cycle;Signal;HPM_P1;HPM_P2
2023/02/26 00:00:50;;;;;;;;;;;;;;;1.13;78.78;100732.97;4192897;28;20007;-64
2023/02/26 00:02:52;;;;;;;;;;;;;;;1.14;78.71;100736.47;4191454;28;20023;-64
2023/02/26 00:04:56;;;;;;;;;;;;;;;1.15;78.57;100736.34;4192764;28;19954;-65
2023/02/26 00:06:58;;;;;;;;;;;;;;;1.13;78.37;100746.28;4195697;28;20015;-64
2023/02/26 00:09:00;;;;;;;;;;;;;;;1.14;78.60;100744.47;4197714;28;20024;-65
2023/02/26 00:11:02;;;;;;;;;;;;;;;1.15;78.27;100754.16;4195679;28;20012;-65
2023/02/26 00:13:04;;;;;;;;;;;;;;;1.13;77.88;100756.91;4196023;28;20400;-65
2023/02/26 00:15:07;;;;;;;;;;;;;;;1.12;77.71;100763.19;4195589;28;20020;-65
2023/02/26 00:17:14;;;;;;;;;;;;;;;1.10;77.72;100762.47;4196332;28;20015;-64
2023/02/26 00:19:17;;;;;;;;;;;;;;;1.08;77.88;100769.69;4195968;28;20859;-65
2023/02/26 00:21:20;;;;;;;;;;;;;;;1.06;78.08;100774.28;4187982;28;20035;-65
2023/02/26 00:23:23;;;;;;;;;;;;;;;1.05;77.92;100778.78;4195934;28;20048;-65
2023/02/26 00:25:25;;;;;;;;;;;;;;;1.06;78.11;100780.44;4202640;28;20027;-64
2023/02/26 00:27:27;;;;;;;;;;;;;;;1.07;78.07;100776.84;4196111;28;20693;-64
2023/02/26 00:29:29;;;;;;;;;;;;;;;1.08;78.00;100780.34;4195578;28;20028;-65
2023/02/26 00:31:32;;;;;;;;;;;;;;;1.08;78.00;100783.00;4184990;28;20022;-64
2023/02/26 00:33:34;;;;;;;;;;;;;;;1.08;78.02;100785.66;4195431;28;20383;-65
2023/02/26 00:35:36;;;;;;;;;;;;;;;1.08;78.04;100786.53;4186262;28;20024;-64
2023/02/26 00:37:48;;;;;;;;;;;;;;;1.10;78.11;100797.06;4196307;28;20024;-65
2023/02/26 00:39:51;;;;;;;;;;;;;;;1.09;78.11;100792.69;4203551;28;20487;-65
2023/02/26 00:41:53;;;;;;;;;;;;;;;1.11;78.09;100797.88;4195639;28;20011;-65
2023/02/26 00:43:55;;;;;;;;;;;;;;;1.08;78.00;100798.94;4195027;28;20040;-65
2023/02/26 00:45:59;;;;;;;;;;;;;;;1.02;77.94;100791.44;4186370;28;20016;-63
2023/02/26 00:48:07;;;;;;;;;;;;;;;1.08;77.87;100804.28;4187090;28;20024;-65
2023/02/26 00:50:12;;;;;;;;;;;;;;;1.08;78.08;100805.16;4203194;28;20000;-65
2023/02/26 00:52:14;;;;;;;;;;;;;;;1.09;77.77;100811.31;4196133;28;20035;-64
2023/02/26 00:54:19;;;;;;;;;;;;;;;1.10;77.75;100804.16;4195577;28;20019;-64
2023/02/26 00:56:20;;;;;;;;;;;;;;;1.08;77.70;100817.56;4196578;28;20011;-65
2023/02/26 00:58:22;;;;;;;;;;;;;;;1.07;77.66;100814.06;4196122;28;20027;-65
2023/02/26 01:00:25;;;;;;;;;;;;;;;1.07;77.65;100824.72;4195503;28;20036;-64
2023/02/26 01:02:27;;;;;;;;;;;;;;;1.09;77.72;100824.59;4196238;28;20031;-64
2023/02/26 01:04:29;;;;;;;;;;;;;;;1.11;77.63;100820.00;4195375;28;20015;-64
2023/02/26 01:06:33;;;;;;;;;;;;;;;1.13;77.54;100817.25;4203020;28;20450;-65
2023/02/26 01:08:36;;;;;;;;;;;;;;;1.14;77.37;100822.44;4195843;28;20386;-64
2023/02/26 01:10:40;;;;;;;;;;;;;;;1.15;77.40;100820.66;4201411;28;20049;-64
2023/02/26 01:12:43;;;;;;;;;;;;;;;1.14;77.05;100824.25;4194347;28;20015;-65
2023/02/26 01:14:46;;;;;;;;;;;;;;;1.14;77.02;100834.91;4193642;28;20015;-64
2023/02/26 01:16:50;;;;;;;;;;;;;;;1.14;77.21;100837.56;4196405;28;20023;-64
2023/02/26 01:18:53;;;;;;;;;;;;;;;1.15;77.14;100832.13;4203181;28;20023;-65
2023/02/26 01:20:56;;;;;;;;;;;;;;;1.15;77.17;100836.63;4195177;28;20027;-64
2023/02/26 01:22:59;;;;;;;;;;;;;;;1.13;77.06;100831.41;4195941;28;20023;-64
2023/02/26 01:25:03;;;;;;;;;;;;;;;1.14;77.29;100838.41;4170039;28;20089;-65
2023/02/26 01:27:07;;;;;;;;;;;;;;;1.16;77.08;100830.31;4195955;28;20128;-64
2023/02/26 01:29:09;;;;;;;;;;;;;;;1.17;76.86;100843.50;4203800;28;20026;-64
2023/02/26 01:31:15;;;;;;;;;;;;;;;1.17;76.60;100837.34;4195083;28;20031;-64
2023/02/26 01:33:18;;;;;;;;;;;;;;;1.16;76.48;100844.47;4203568;28;20015;-66
2023/02/26 01:35:36;;;;;;;;;;;;;;;1.17;76.47;100847.97;4195192;28;20016;-65
2023/02/26 01:37:41;;;;;;;;;;;;;;;1.16;76.80;100851.59;4195673;28;20031;-65
2023/02/26 01:39:44;;;;;;;;;;;;;;;1.17;76.68;100848.81;4202379;28;20390;-64
2023/02/26 01:41:46;;;;;;;;;;;;;;;1.18;76.41;100853.19;4193602;28;20461;-66
2023/02/26 01:43:51;;;;;;;;;;;;;;;1.18;76.27;100847.88;4185636;28;20030;-65
2023/02/26 01:45:55;;;;;;;;;;;;;;;1.16;76.29;100855.13;4194673;28;20023;-66
2023/02/26 01:48:00;;;;;;;;;;;;;;;1.16;76.18;100863.09;4195810;28;20011;-65
2023/02/26 01:50:06;;;;;;;;;;;;;;;1.16;76.41;100867.56;4194618;28;20015;-66
2023/02/26 01:52:23;;;;;;;;;;;;;;;1.19;76.45;100862.88;4194813;28;20051;-65
2023/02/26 01:54:28;;;;;;;;;;;;;;;1.19;76.21;100862.00;4202237;28;20410;-66
2023/02/26 01:56:30;;;;;;;;;;;;;;;1.20;76.04;100863.72;4202998;28;20026;-65
2023/02/26 01:58:33;;;;;;;;;;;;;;;1.16;75.99;100865.78;4193570;28;20011;-65
2023/02/26 02:00:36;;;;;;;;;;;;;;;1.18;76.10;100870.97;4194137;28;20040;-65
2023/02/26 02:02:38;;;;;;;;;;;;;;;1.14;75.95;100873.00;4202743;28;20030;-65
2023/02/26 02:04:42;;;;;;;;;;;;;;;1.12;75.84;100885.56;4194069;28;20019;-66
2023/02/26 02:06:44;;;;;;;;;;;;;;;1.13;76.18;100883.75;4185978;28;20015;-65
2023/02/26 02:08:46;;;;;;;;;;;;;;;1.10;76.15;100889.28;4195693;28;20031;-66
2023/02/26 02:10:48;;;;;;;;;;;;;;;1.07;76.53;100890.38;4194672;28;20031;-65
2023/02/26 02:12:51;;;;;;;;;;;;;;;1.04;76.32;100890.59;4195047;28;20457;-65
2023/02/26 02:14:57;;;;;;;;;;;;;;;1.03;76.67;100895.06;4201420;28;20023;-65
2023/02/26 02:17:03;;;;;;;;;;;;;;;1.05;76.86;100893.16;4210839;28;20011;-66
2023/02/26 02:19:09;;;;;;;;;;;;;;;1.03;76.72;100897.72;4209862;28;19967;-66
2023/02/26 02:21:41;;;;;;;;;;;;;;;1.06;76.58;100900.16;4200977;28;20402;-65
2023/02/26 02:23:45;;;;;;;;;;;;;;;1.09;76.40;100901.75;4136571;28;20423;-67
2023/02/26 02:26:11;;;;;;;;;;;;;;;1.11;76.21;100910.47;4182323;28;20019;-65
2023/02/26 02:28:17;;;;;;;;;;;;;;;1.13;76.11;100907.69;4194605;28;19924;-65
2023/02/26 02:30:23;;;;;;;;;;;;;;;1.13;76.15;100910.34;4193980;28;20027;-65
2023/02/26 02:32:27;;;;;;;;;;;;;;;1.11;76.08;100921.09;4192580;28;20027;-65
2023/02/26 02:34:30;;;;;;;;;;;;;;;1.13;76.08;100918.31;4185012;28;20019;-64
2023/02/26 02:36:34;;;;;;;;;;;;;;;1.15;75.95;100924.41;4194400;28;20097;-65
2023/02/26 02:38:37;;;;;;;;;;;;;;;1.14;75.78;100915.56;4195059;28;20606;-65
2023/02/26 02:40:40;;;;;;;;;;;;;;;1.15;75.68;100913.78;4194199;28;20019;-65
2023/02/26 02:42:43;;;;;;;;;;;;;;;1.13;75.45;100921.00;4189607;28;20015;-66
2023/02/26 02:44:46;;;;;;;;;;;;;;;1.16;75.61;100924.28;4195038;28;19992;-66
2023/02/26 02:46:48;;;;;;;;;;;;;;;1.18;75.58;100934.81;4195043;28;20019;-64
2023/02/26 02:48:54;;;;;;;;;;;;;;;1.20;75.48;100927.56;4194513;28;20478;-65
2023/02/26 02:50:57;;;;;;;;;;;;;;;1.21;75.22;100938.09;4185389;28;20011;-65
2023/02/26 02:53:00;;;;;;;;;;;;;;;1.20;75.02;100935.56;4192850;28;20039;-66
2023/02/26 02:55:03;;;;;;;;;;;;;;;1.22;74.84;100938.94;4184073;28;20039;-66
2023/02/26 02:57:06;;;;;;;;;;;;;;;1.22;74.74;100929.16;4202073;28;20019;-66
2023/02/26 02:59:11;;;;;;;;;;;;;;;1.24;74.81;100953.00;4193432;28;20097;-65
2023/02/26 03:01:13;;;;;;;;;;;;;;;1.22;74.65;100945.13;4210438;28;20710;-65
2023/02/26 03:03:16;;;;;;;;;;;;;;;1.21;74.53;100946.09;4194384;28;20056;-65
2023/02/26 03:05:21;;;;;;;;;;;;;;;1.19;74.54;100950.69;4193345;28;20027;-66
2023/02/26 03:07:23;;;;;;;;;;;;;;;1.16;74.52;100948.25;4185502;28;20024;-66
2023/02/26 03:09:27;;;;;;;;;;;;;;;1.16;74.62;100950.03;4184462;28;20016;-66
2023/02/26 03:11:29;;;;;;;;;;;;;;;1.13;74.52;100956.44;4194284;28;20032;-66
2023/02/26 03:13:30;;;;;;;;;;;;;;;1.14;74.55;100960.78;4201762;28;20026;-65
2023/02/26 03:15:45;;;;;;;;;;;;;;;1.14;74.77;100962.59;4193113;28;20040;-66
2023/02/26 03:17:51;;;;;;;;;;;;;;;1.14;74.59;100963.44;4201888;28;20027;-65
2023/02/26 03:19:58;;;;;;;;;;;;;;;1.14;74.49;100967.91;4192965;28;20014;-67
2023/02/26 03:22:03;;;;;;;;;;;;;;;1.15;74.55;100964.31;4209682;28;20023;-64
2023/02/26 03:24:26;;;;;;;;;;;;;;;1.16;74.64;100971.31;4191492;28;20026;-65
2023/02/26 03:26:29;;;;;;;;;;;;;;;1.15;74.67;100974.94;4185539;28;20012;-65
2023/02/26 03:28:33;;;;;;;;;;;;;;;1.13;74.60;100968.88;4185284;28;20383;-66
2023/02/26 03:30:39;;;;;;;;;;;;;;;1.13;74.87;100982.19;4201672;28;20023;-66
2023/02/26 03:32:43;;;;;;;;;;;;;;;1.11;74.68;100984.09;4209028;28;20015;-65
2023/02/26 03:34:47;;;;;;;;;;;;;;;1.11;74.49;100981.44;4208346;28;20044;-65
2023/02/26 03:36:52;;;;;;;;;;;;;;;1.09;74.87;100986.88;4200792;28;20055;-66
2023/02/26 03:39:05;;;;;;;;;;;;;;;1.10;74.70;100991.25;4201508;28;20015;-66
2023/02/26 03:41:08;;;;;;;;;;;;;;;1.11;74.57;101000.91;4200161;28;20587;-66
2023/02/26 03:43:12;;;;;;;;;;;;;;;1.11;74.56;101006.22;4210449;28;20030;-66
2023/02/26 03:45:15;;;;;;;;;;;;;;;1.12;74.58;101009.75;4191716;28;20007;-65
2023/02/26 03:47:18;;;;;;;;;;;;;;;1.10;74.63;101015.19;4211166;28;20034;-65
2023/02/26 03:49:22;;;;;;;;;;;;;;;1.10;74.52;101014.31;4195073;28;20011;-65
2023/02/26 03:51:25;;;;;;;;;;;;;;;1.12;74.50;101018.56;4208276;28;20022;-66
2023/02/26 03:53:54;;;;;;;;;;;;;;;1.13;74.43;101022.94;4195038;28;20027;-65
2023/02/26 03:56:01;;;;;;;;;;;;;;;1.11;74.15;101032.00;4204032;28;20018;-66
2023/02/26 03:58:23;;;;;;;;;;;;;;;1.12;74.18;101026.56;4196528;28;20355;-66
2023/02/26 04:00:59;;;;;;;;;;;;;;;1.13;74.11;101030.94;4146984;28;20433;-66
2023/02/26 04:03:02;;;;;;;;;;;;;;;1.12;74.18;101037.19;4186643;28;20639;-66
2023/02/26 04:05:06;;;;;;;;;;;;;;;1.13;74.47;101028.28;4196800;28;20015;-66
2023/02/26 04:07:10;;;;;;;;;;;;;;;1.13;74.48;101038.91;4205116;28;20026;-66
2023/02/26 04:09:12;;;;;;;;;;;;;;;1.15;74.33;101036.16;4211757;28;20019;-65
2023/02/26 04:11:17;;;;;;;;;;;;;;;1.16;74.26;101040.50;4195716;28;20035;-64
2023/02/26 04:13:19;;;;;;;;;;;;;;;1.19;74.05;101042.94;4212776;28;20018;-65
2023/02/26 04:15:23;;;;;;;;;;;;;;;1.19;74.28;101042.94;4195073;28;20015;-64
2023/02/26 04:17:25;;;;;;;;;;;;;;;1.17;73.94;101044.84;4196730;28;20023;-65
2023/02/26 04:19:27;;;;;;;;;;;;;;;1.14;74.08;101042.41;4203784;28;20011;-65
2023/02/26 04:21:29;;;;;;;;;;;;;;;1.15;74.13;101052.09;4196849;28;20438;-65
2023/02/26 04:23:31;;;;;;;;;;;;;;;1.14;74.20;101048.56;4204205;28;20031;-66
2023/02/26 04:25:34;;;;;;;;;;;;;;;1.14;74.15;101051.25;4209784;28;20011;-65
2023/02/26 04:27:38;;;;;;;;;;;;;;;1.14;74.04;101056.56;4195210;28;19951;-66
2023/02/26 04:29:40;;;;;;;;;;;;;;;1.11;74.06;101056.78;4187637;28;20003;-66
2023/02/26 04:31:42;;;;;;;;;;;;;;;1.09;74.10;101064.03;4196301;28;20011;-66
2023/02/26 04:33:45;;;;;;;;;;;;;;;1.08;74.21;101070.28;4173007;28;20407;-66
2023/02/26 04:35:48;;;;;;;;;;;;;;;1.08;74.23;101067.63;4203291;28;20011;-65
2023/02/26 04:37:51;;;;;;;;;;;;;;;1.07;74.48;101071.25;4211139;28;20027;-65
2023/02/26 04:39:54;;;;;;;;;;;;;;;1.08;74.55;101078.28;4196062;28;20019;-66
2023/02/26 04:41:56;;;;;;;;;;;;;;;1.07;74.38;101079.25;4203834;28;20058;-66
2023/02/26 04:44:00;;;;;;;;;;;;;;;1.09;74.21;101082.66;4211925;28;20026;-65
2023/02/26 04:46:05;;;;;;;;;;;;;;;1.10;74.51;101084.34;4194175;28;20011;-66
2023/02/26 04:48:08;;;;;;;;;;;;;;;1.14;74.22;101084.97;4194402;28;20866;-66
2023/02/26 04:50:11;;;;;;;;;;;;;;;1.14;73.96;101088.47;4210676;28;20019;-65
2023/02/26 04:52:13;;;;;;;;;;;;;;;1.13;73.90;101091.25;4186063;28;20020;-63
2023/02/26 04:54:15;;;;;;;;;;;;;;;1.11;73.75;101093.19;4187031;28;20416;-66
2023/02/26 04:56:17;;;;;;;;;;;;;;;1.09;73.97;101095.94;4203208;28;20028;-65
2023/02/26 04:58:20;;;;;;;;;;;;;;;1.09;73.86;101093.28;4211167;28;20051;-66
2023/02/26 05:00:24;;;;;;;;;;;;;;;1.11;73.88;101103.81;4195089;28;20297;-66
2023/02/26 05:02:26;;;;;;;;;;;;;;;1.11;73.75;101099.34;4204184;28;20090;-65
2023/02/26 05:04:28;;;;;;;;;;;;;;;1.13;73.82;101101.88;4210086;28;20015;-66
2023/02/26 05:06:34;;;;;;;;;;;;;;;1.13;73.31;101101.88;4195661;28;20027;-67
2023/02/26 05:08:40;;;;;;;;;;;;;;;1.11;73.24;101114.47;4196789;28;20993;-65
2023/02/26 05:10:42;;;;;;;;;;;;;;;1.12;73.50;101103.72;4196410;28;20011;-65
2023/02/26 05:12:44;;;;;;;;;;;;;;;1.12;73.30;101111.69;4195490;28;20023;-65
2023/02/26 05:14:46;;;;;;;;;;;;;;;1.10;73.16;101118.94;4203244;28;20016;-65
2023/02/26 05:16:49;;;;;;;;;;;;;;;1.07;72.99;101121.81;4211820;28;20031;-65
2023/02/26 05:18:51;;;;;;;;;;;;;;;1.04;72.84;101130.00;4196604;28;20028;-66
2023/02/26 05:20:53;;;;;;;;;;;;;;;1.05;72.91;101132.56;4186360;28;20028;-65
2023/02/26 05:22:55;;;;;;;;;;;;;;;1.06;72.89;101141.38;4187389;28;20023;-65
2023/02/26 05:24:57;;;;;;;;;;;;;;;1.06;72.91;101146.69;4186691;28;20007;-65
2023/02/26 05:26:59;;;;;;;;;;;;;;;1.05;72.87;101144.97;4195370;28;20487;-66
2023/02/26 05:29:02;;;;;;;;;;;;;;;1.04;72.81;101154.78;4202641;28;20015;-66
2023/02/26 05:31:04;;;;;;;;;;;;;;;1.04;72.65;101168.09;4194163;28;20445;-66
2023/02/26 05:33:07;;;;;;;;;;;;;;;1.05;72.73;101160.94;4193668;28;20382;-63
2023/02/26 05:35:10;;;;;;;;;;;;;;;1.05;72.63;101160.94;4194293;28;20441;-67
2023/02/26 05:37:12;;;;;;;;;;;;;;;1.04;72.51;101161.94;4195278;28;20485;-66
2023/02/26 05:39:13;;;;;;;;;;;;;;;1.01;72.42;101170.94;4195539;28;20015;-66
2023/02/26 05:41:15;;;;;;;;;;;;;;;0.99;72.27;101172.03;4195236;28;20517;-65
2023/02/26 05:43:17;;;;;;;;;;;;;;;0.99;72.48;101169.38;4193236;28;20019;-65
2023/02/26 05:45:19;;;;;;;;;;;;;;;0.99;72.59;101174.69;4202518;28;20437;-65
2023/02/26 05:47:21;;;;;;;;;;;;;;;1.01;72.62;101175.44;4195608;28;20372;-65
2023/02/26 05:49:25;;;;;;;;;;;;;;;1.02;72.70;101178.00;4195135;28;20371;-65
2023/02/26 05:51:27;;;;;;;;;;;;;;;1.03;72.59;101182.34;4192222;28;20020;-63
2023/02/26 05:53:29;;;;;;;;;;;;;;;1.05;72.47;101185.75;4195911;28;20358;-65
2023/02/26 05:55:31;;;;;;;;;;;;;;;1.05;72.37;101185.75;4193954;28;20012;-65
2023/02/26 05:57:33;;;;;;;;;;;;;;;1.07;72.36;101185.66;4196172;28;20042;-66
2023/02/26 05:59:37;;;;;;;;;;;;;;;1.10;72.46;101189.91;4192283;28;20019;-66
2023/02/26 06:01:39;;;;;;;;;;;;;;;1.12;71.95;101195.97;4195433;28;20078;-65
2023/02/26 06:03:43;;;;;;;;;;;;;;;1.11;71.88;101197.78;4195619;28;20020;-66
2023/02/26 06:05:47;;;;;;;;;;;;;;;1.11;71.83;101199.59;4193888;28;20015;-64
2023/02/26 06:07:49;;;;;;;;;;;;;;;1.06;71.32;101195.44;4194699;28;20028;-65
2023/02/26 06:09:51;;;;;;;;;;;;;;;1.04;71.44;101212.47;4194994;28;20365;-65
2023/02/26 06:11:53;;;;;;;;;;;;;;;1.03;71.57;101216.91;4195192;28;20007;-65
2023/02/26 06:13:55;;;;;;;;;;;;;;;1.02;71.64;101219.69;4194971;28;20019;-66
2023/02/26 06:15:57;;;;;;;;;;;;;;;1.03;71.82;101218.72;4192662;28;20055;-66
2023/02/26 06:17:59;;;;;;;;;;;;;;;1.03;71.85;101221.41;4194609;28;20015;-65
2023/02/26 06:20:01;;;;;;;;;;;;;;;1.07;72.00;101226.41;4195383;28;20011;-66
2023/02/26 06:22:05;;;;;;;;;;;;;;;1.09;71.79;101228.97;4194087;28;19935;-66
2023/02/26 06:24:07;;;;;;;;;;;;;;;1.12;71.83;101225.25;4194629;28;20007;-65
2023/02/26 06:26:09;;;;;;;;;;;;;;;1.11;71.40;101229.69;4194088;28;20581;-66
2023/02/26 06:28:11;;;;;;;;;;;;;;;1.10;71.32;101224.47;4192952;28;20307;-66
2023/02/26 06:30:13;;;;;;;;;;;;;;;1.10;71.46;101238.66;4195043;28;20020;-66
2023/02/26 06:32:15;;;;;;;;;;;;;;;1.12;71.25;101235.91;4195423;28;20011;-66
2023/02/26 06:34:17;;;;;;;;;;;;;;;1.14;71.28;101239.28;4194043;28;20011;-64
2023/02/26 06:36:19;;;;;;;;;;;;;;;1.15;70.87;101238.34;4193498;28;20031;-66
2023/02/26 06:38:22;;;;;;;;;;;;;;;1.16;70.74;101242.69;4193999;28;20027;-65
2023/02/26 06:40:25;;;;;;;;;;;;;;;1.17;70.66;101247.06;4194603;28;20458;-65
2023/02/26 06:42:28;;;;;;;;;;;;;;;1.16;70.59;101253.34;4192155;28;20022;-65
2023/02/26 06:44:30;;;;;;;;;;;;;;;1.15;70.29;101256.97;4194048;28;20035;-65
2023/02/26 06:46:32;;;;;;;;;;;;;;;1.15;70.52;101260.47;4195223;28;20019;-63
2023/02/26 06:48:34;;;;;;;;;;;;;;;1.14;70.76;101258.75;4194964;28;20023;-65
2023/02/26 06:50:36;;;;;;;;;;;;;;;1.16;71.00;101263.97;4193842;28;20007;-64
2023/02/26 06:52:38;;;;;;;;;;;;;;;1.18;70.72;101267.41;4193569;28;19960;-65
2023/02/26 06:54:41;;;;;;;;;;;;;;;1.19;70.70;101266.44;4191676;28;20039;-65
2023/02/26 06:56:43;;;;;;;;;;;;;;;1.23;70.85;101275.94;4194035;28;20036;-65
2023/02/26 06:58:45;;;;;;;;;;;;;;;1.26;70.95;101268.56;4194054;28;20027;-62
2023/02/26 07:00:47;;;;;;;;;;;;;;;1.30;70.54;101276.34;4193706;28;20426;-63
2023/02/26 07:02:49;;;;;;;;;;;;;;;1.32;70.41;101280.63;4194532;28;20472;-66
2023/02/26 07:04:51;;;;;;;;;;;;;;;1.33;70.50;101292.97;4194741;28;20445;-67
2023/02/26 07:06:53;;;;;;;;;;;;;;;1.35;70.26;101307.03;4194563;28;20011;-66
2023/02/26 07:08:55;;;;;;;;;;;;;;;1.30;69.91;101301.19;4194541;28;20015;-66
2023/02/26 07:10:59;;;;;;;;;;;;;;;1.32;70.40;101307.25;4191569;28;20024;-65
2023/02/26 07:13:01;;;;;;;;;;;;;;;1.35;70.20;101312.38;4193613;28;20007;-65
2023/02/26 07:15:03;;;;;;;;;;;;;;;1.36;70.05;101314.03;4193425;28;20040;-66
2023/02/26 07:17:05;;;;;;;;;;;;;;;1.34;69.72;101318.63;4194372;28;20470;-66
2023/02/26 07:19:06;;;;;;;;;;;;;;;1.36;69.89;101324.69;4193515;28;20016;-64
2023/02/26 07:21:09;;;;;;;;;;;;;;;1.39;70.07;101327.16;4193254;28;20019;-65
2023/02/26 07:23:11;;;;;;;;;;;;;;;1.41;70.26;101330.59;4191996;28;20011;-64
2023/02/26 07:25:13;;;;;;;;;;;;;;;1.43;70.26;101335.81;4192711;28;20019;-65
2023/02/26 07:27:17;;;;;;;;;;;;;;;1.45;69.94;101341.88;4193756;28;20011;-65
2023/02/26 07:29:18;;;;;;;;;;;;;;;1.47;70.20;101341.75;4193399;28;20098;-65
2023/02/26 07:31:23;;;;;;;;;;;;;;;1.50;70.22;101337.06;4193275;28;20023;-65
2023/02/26 07:33:25;;;;;;;;;;;;;;;1.52;70.35;101347.63;4191661;28;20014;-66
2023/02/26 07:35:28;;;;;;;;;;;;;;;1.55;70.20;101350.06;4189276;28;20007;-65
2023/02/26 07:37:29;;;;;;;;;;;;;;;1.58;70.29;101360.53;4191475;28;20027;-66
2023/02/26 07:39:31;;;;;;;;;;;;;;;1.61;70.62;101362.97;4191935;28;20011;-66
2023/02/26 07:41:33;;;;;;;;;;;;;;;1.63;70.39;101363.75;4192423;28;20008;-65
2023/02/26 07:43:37;;;;;;;;;;;;;;;1.66;70.59;101365.34;4192630;28;20007;-65
2023/02/26 07:45:39;;;;;;;;;;;;;;;1.72;71.09;101375.56;4192249;28;20016;-66
2023/02/26 07:47:41;;;;;;;;;;;;;;;1.73;70.60;101378.13;4193079;28;20034;-65
2023/02/26 07:49:43;;;;;;;;;;;;;;;1.76;70.62;101379.75;4192084;28;20011;-65
2023/02/26 07:51:45;;;;;;;;;;;;;;;1.77;70.41;101390.28;4192096;28;20011;-65
2023/02/26 07:53:47;;;;;;;;;;;;;;;1.79;70.12;101384.88;4192915;28;20015;-64
2023/02/26 07:55:49;;;;;;;;;;;;;;;1.77;69.61;101384.97;4190444;28;20015;-65
2023/02/26 07:57:51;;;;;;;;;;;;;;;1.76;69.37;101385.91;4187636;28;20027;-65
2023/02/26 07:59:54;;;;;;;;;;;;;;;1.71;69.56;101374.72;4195840;28;20019;-65
2023/02/26 08:01:56;;;;;;;;;;;;;;;1.81;70.23;101388.28;4185318;28;20327;-65
2023/02/26 08:03:58;;;;;;;;;;;;;;;1.84;70.83;101384.56;4185861;28;20027;-65
2023/02/26 08:06:00;;;;;;;;;;;;;;;1.89;70.31;101390.41;4188273;28;20014;-65
2023/02/26 08:08:02;;;;;;;;;;;;;;;1.90;70.05;101395.63;4190951;28;20437;-66
2023/02/26 08:10:04;;;;;;;;;;;;;;;1.91;70.25;101389.38;4189630;28;20019;-66
2023/02/26 08:12:06;;;;;;;;;;;;;;;1.95;69.58;101392.66;4189227;28;20007;-65
2023/02/26 08:14:08;;;;;;;;;;;;;;;1.97;69.69;101393.41;4189533;28;20023;-64
2023/02/26 08:16:12;;;;;;;;;;;;;;;2.00;70.36;101398.50;4189153;28;20059;-66
2023/02/26 08:18:15;;;;;;;;;;;;;;;2.05;70.86;101399.03;4188473;28;20023;-65
2023/02/26 08:20:17;;;;;;;;;;;;;;;2.12;71.36;101399.50;4189282;28;20557;-65
2023/02/26 08:22:19;;;;;;;;;;;;;;;2.18;71.16;101401.75;4189620;28;20035;-65
2023/02/26 08:24:23;;;;;;;;;;;;;;;2.24;71.15;101411.97;4188722;28;20045;-65
2023/02/26 08:26:25;;;;;;;;;;;;;;;2.32;71.48;101414.09;4190032;28;20039;-65
2023/02/26 08:28:27;;;;;;;;;;;;;;;2.38;70.96;101418.97;4192847;28;20011;-63
2023/02/26 08:30:29;;;;;;;;;;;;;;;2.43;70.05;101422.22;4192156;28;20411;-64
2023/02/26 08:32:33;;;;;;;;;;;;;;;2.46;70.13;101426.44;4192700;28;20008;-63
2023/02/26 08:34:35;;;;;;;;;;;;;;;2.51;70.02;101425.19;4188315;28;20024;-63
2023/02/26 08:36:37;;;;;;;;;;;;;;;2.58;69.38;101424.75;4192327;28;20023;-64
2023/02/26 08:38:39;;;;;;;;;;;;;;;2.62;69.59;101431.59;4189977;28;20019;-63
2023/02/26 08:40:41;;;;;;;;;;;;;;;2.71;70.34;101441.56;4192721;28;20024;-64
2023/02/26 08:42:43;;;;;;;;;;;;;;;2.80;70.42;101437.41;4191437;28;20027;-65
2023/02/26 08:44:45;;;;;;;;;;;;;;;2.88;70.69;101435.03;4193810;28;20015;-65
2023/02/26 08:46:47;;;;;;;;;;;;;;;2.93;70.08;101440.06;4193222;28;20011;-63
2023/02/26 08:48:50;;;;;;;;;;;;;;;2.99;70.22;101447.63;4191465;28;20030;-64
2023/02/26 08:50:52;;;;;;;;;;;;;;;3.10;70.50;101438.84;4192876;28;20183;-64
2023/02/26 08:52:54;;;;;;;;;;;;;;;3.20;70.67;101437.22;4191287;28;20461;-64
2023/02/26 08:54:56;;;;;;;;;;;;;;;3.29;71.15;101435.69;4184360;28;20498;-61
2023/02/26 08:56:58;;;;;;;;;;;;;;;3.43;71.43;101446.19;4193120;28;20024;-62
2023/02/26 08:59:00;;;;;;;;;;;;;;;3.55;71.19;101455.13;4189454;28;20011;-64
2023/02/26 09:01:02;;;;;;;;;;;;;;;3.68;71.11;101453.22;4190287;28;20066;-63
2023/02/26 09:03:04;;;;;;;;;;;;;;;3.84;70.54;101462.75;4189951;28;20018;-63
2023/02/26 09:05:08;;;;;;;;;;;;;;;3.98;70.60;101459.91;4189670;28;20621;-63
2023/02/26 09:07:10;;;;;;;;;;;;;;;4.11;70.28;101462.50;4191421;28;20043;-65
2023/02/26 09:09:12;;;;;;;;;;;;;;;4.23;69.76;101466.06;4190663;28;20011;-64
2023/02/26 09:11:14;;;;;;;;;;;;;;;4.36;69.75;101463.28;4190055;28;20016;-63
2023/02/26 09:13:16;;;;;;;;;;;;;;;4.46;69.24;101469.63;4192918;28;20024;-64
2023/02/26 09:15:18;;;;;;;;;;;;;;;4.56;68.98;101467.97;4193665;28;20011;-63
2023/02/26 09:17:22;;;;;;;;;;;;;;;4.67;68.36;101475.13;4192486;28;20019;-62
2023/02/26 09:19:24;;;;;;;;;;;;;;;4.75;67.67;101475.38;4193336;28;20022;-64
2023/02/26 09:21:27;;;;;;;;;;;;;;;4.84;67.60;101468.44;4193799;28;20028;-64
2023/02/26 09:23:29;;;;;;;;;;;;;;;4.89;67.17;101485.00;4194287;28;20028;-64
2023/02/26 09:25:31;;;;;;;;;;;;;;;4.99;66.66;101485.13;4190333;28;20019;-63
2023/02/26 09:27:34;;;;;;;;;;;;;;;5.05;66.53;101485.47;4193631;28;20023;-64
2023/02/26 09:29:37;;;;;;;;;;;;;;;5.10;65.61;101493.13;4185441;28;20022;-62
2023/02/26 09:31:40;;;;;;;;;;;;;;;5.08;64.48;101497.78;4203683;28;20015;-63
2023/02/26 09:33:43;;;;;;;;;;;;;;;4.98;65.23;101500.31;4196011;28;20019;-64
2023/02/26 09:35:49;;;;;;;;;;;;;;;4.94;64.63;101503.38;4194305;28;20015;-64
2023/02/26 09:37:53;;;;;;;;;;;;;;;4.89;64.24;101503.75;4194440;28;20022;-65
2023/02/26 09:39:55;;;;;;;;;;;;;;;4.86;64.38;101510.19;4194958;28;20022;-64
2023/02/26 09:41:58;;;;;;;;;;;;;;;4.92;64.40;101505.31;4194534;28;20016;-64
2023/02/26 09:44:04;;;;;;;;;;;;;;;4.93;64.57;101507.84;4195146;28;20026;-64
2023/02/26 09:46:10;;;;;;;;;;;;;;;4.99;64.45;101512.72;4192786;28;20011;-64
2023/02/26 09:48:12;;;;;;;;;;;;;;;4.99;63.91;101520.75;4192310;28;20044;-64
2023/02/26 09:50:17;;;;;;;;;;;;;;;4.97;64.35;101522.72;4194496;28;20020;-63
2023/02/26 09:52:21;;;;;;;;;;;;;;;4.99;63.52;101520.75;4192175;28;20364;-64
2023/02/26 09:54:24;;;;;;;;;;;;;;;5.04;63.42;101523.91;4194328;28;20018;-64
2023/02/26 09:56:36;;;;;;;;;;;;;;;5.02;63.49;101533.91;4193204;28;20007;-64
2023/02/26 09:58:39;;;;;;;;;;;;;;;5.05;62.86;101536.34;4195187;28;20015;-64
2023/02/26 10:00:42;;;;;;;;;;;;;;;5.07;63.49;101530.88;4191373;28;20015;-63
2023/02/26 10:02:45;;;;;;;;;;;;;;;5.12;63.56;101535.84;4191347;28;20028;-64
2023/02/26 10:04:50;;;;;;;;;;;;;;;5.21;63.03;101532.44;4170535;28;19956;-63
2023/02/26 10:06:55;;;;;;;;;;;;;;;5.29;63.07;101537.19;4191844;28;20016;-64
2023/02/26 10:09:08;;;;;;;;;;;;;;;5.34;62.90;101541.19;4193209;28;20027;-64
2023/02/26 10:11:16;;;;;;;;;;;;;;;5.38;62.89;101550.69;4191708;28;20028;-63
2023/02/26 10:13:22;;;;;;;;;;;;;;;5.39;62.79;101549.72;4194570;28;20027;-64
2023/02/26 10:15:24;;;;;;;;;;;;;;;5.38;62.63;101550.69;4194684;28;20032;-63
2023/02/26 10:17:28;;;;;;;;;;;;;;;5.31;62.50;101549.47;4193873;28;20035;-63
2023/02/26 10:19:32;;;;;;;;;;;;;;;5.30;62.16;101563.84;4193789;28;20372;-61
2023/02/26 10:21:35;;;;;;;;;;;;;;;5.22;61.89;101568.97;4195501;28;20462;-63
2023/02/26 10:23:39;;;;;;;;;;;;;;;5.14;62.71;101569.59;4192672;28;20047;-64
2023/02/26 10:25:41;;;;;;;;;;;;;;;5.09;63.23;101577.09;4191197;28;20025;-61
2023/02/26 10:27:47;;;;;;;;;;;;;;;5.12;63.32;101581.38;4193947;28;20035;-64
2023/02/26 10:29:51;;;;;;;;;;;;;;;5.10;63.26;101581.50;4195033;28;20015;-62
2023/02/26 10:31:59;;;;;;;;;;;;;;;5.07;62.66;101584.41;4194697;28;20007;-64
2023/02/26 10:34:06;;;;;;;;;;;;;;;5.03;62.53;101586.50;4193699;28;20031;-64
2023/02/26 10:36:11;;;;;;;;;;;;;;;5.06;63.16;101598.75;4192489;28;20015;-64
2023/02/26 10:38:14;;;;;;;;;;;;;;;5.14;62.83;101577.63;4194347;28;20026;-64
2023/02/26 10:40:17;;;;;;;;;;;;;;;5.21;62.28;101594.88;4192528;28;20020;-64
2023/02/26 10:42:20;;;;;;;;;;;;;;;5.31;62.51;101594.16;4195090;28;20019;-64
2023/02/26 10:44:24;;;;;;;;;;;;;;;5.39;62.46;101595.28;4194023;28;20027;-65